createdAt,value
2019-05-06T00:02:09.687Z,7.80
2019-05-06T00:04:39.449Z,7.70
2019-05-06T00:07:09.274Z,7.70
2019-05-06T00:09:38.973Z,7.70
2019-05-06T00:12:08.775Z,7.60
2019-05-06T00:14:38.525Z,7.70
2019-05-06T00:17:08.853Z,7.70
2019-05-06T00:19:38.692Z,7.60
2019-05-06T00:22:08.626Z,7.70
2019-05-06T00:24:54.712Z,7.70
2019-05-06T00:27:30.850Z,7.70
2019-05-06T00:30:02.214Z,7.70
2019-05-06T00:32:34.839Z,7.70
2019-05-06T00:35:05.657Z,7.70
2019-05-06T00:37:35.387Z,7.70
2019-05-06T00:40:15.175Z,7.70
2019-05-06T00:42:55.520Z,7.70
2019-05-06T00:45:25.332Z,7.80
2019-05-06T00:47:55.027Z,7.80
2019-05-06T00:50:24.815Z,7.80
2019-05-06T00:52:55.667Z,7.90
2019-05-06T00:55:25.563Z,7.90
2019-05-06T00:57:55.448Z,7.90
2019-05-06T01:00:30.301Z,8.00
2019-05-06T01:03:00.243Z,8.00
2019-05-06T01:05:30.210Z,8.00
2019-05-06T01:08:00.311Z,8.00
2019-05-06T01:10:30.422Z,8.00
2019-05-06T01:13:06.188Z,8.00
2019-05-06T01:15:36.026Z,8.10
2019-05-06T01:18:06.450Z,8.10
2019-05-06T01:20:36.512Z,8.10
2019-05-06T01:23:06.324Z,8.10
2019-05-06T01:25:36.248Z,8.10
2019-05-06T01:28:06.040Z,8.10
2019-05-06T01:30:35.971Z,8.10
2019-05-06T01:33:06.066Z,8.10
2019-05-06T01:35:36.150Z,8.00
2019-05-06T01:38:36.504Z,8.00
2019-05-06T01:41:24.461Z,8.00
2019-05-06T01:43:55.203Z,8.00
2019-05-06T01:46:25.172Z,8.00
2019-05-06T01:48:55.016Z,8.00
2019-05-06T01:51:25.022Z,7.90
2019-05-06T01:53:54.830Z,7.90
2019-05-06T01:56:24.955Z,7.90
2019-05-06T01:58:54.747Z,7.80
2019-05-06T02:01:25.169Z,7.80
2019-05-06T02:03:55.197Z,7.70
2019-05-06T02:06:25.349Z,7.60
2019-05-06T02:08:55.619Z,7.60
2019-05-06T02:11:26.455Z,7.50
2019-05-06T02:13:57.257Z,7.50
2019-05-06T02:16:27.062Z,7.40
2019-05-06T02:18:56.791Z,7.30
2019-05-06T02:21:44.582Z,7.30
2019-05-06T02:24:20.063Z,7.30
2019-05-06T02:26:49.865Z,7.20
2019-05-06T02:29:21.473Z,7.20
2019-05-06T02:32:17.168Z,7.10
2019-05-06T02:34:46.302Z,7.00
2019-05-06T02:37:25.376Z,6.90
2019-05-06T02:39:54.267Z,6.90
2019-05-06T02:42:24.156Z,6.90
2019-05-06T02:44:54.524Z,6.80
2019-05-06T02:47:34.378Z,6.70
2019-05-06T02:50:08.434Z,6.70
2019-05-06T02:52:38.198Z,6.70
2019-05-06T02:55:08.344Z,6.60
2019-05-06T02:57:38.093Z,6.60
2019-05-06T03:00:13.215Z,6.50
2019-05-06T03:02:47.041Z,6.50
2019-05-06T03:05:14.620Z,6.40
2019-05-06T03:07:44.429Z,6.40
2019-05-06T03:10:15.717Z,6.30
2019-05-06T03:12:45.471Z,6.20
2019-05-06T03:15:16.841Z,6.20
2019-05-06T03:17:46.931Z,6.10
2019-05-06T03:20:32.431Z,6.10
2019-05-06T03:23:05.592Z,6.10
2019-05-06T03:25:38.063Z,6.10
2019-05-06T03:28:08.499Z,6.00
2019-05-06T03:30:38.308Z,5.90
2019-05-06T03:33:36.342Z,5.90
2019-05-06T03:35:56.213Z,5.90
2019-05-06T03:38:13.775Z,5.90
2019-05-06T03:40:45.862Z,5.90
2019-05-06T03:43:16.191Z,5.80
2019-05-06T03:46:06.255Z,5.90
2019-05-06T03:48:38.785Z,5.80
2019-05-06T03:51:08.646Z,5.80
2019-05-06T03:53:38.740Z,5.80
2019-05-06T03:56:08.518Z,5.80
2019-05-06T03:58:38.309Z,5.80
2019-05-06T04:01:08.139Z,5.80
2019-05-06T04:03:47.303Z,5.80
2019-05-06T04:06:13.546Z,5.80
2019-05-06T04:08:43.674Z,5.90
2019-05-06T04:11:15.775Z,5.90
2019-05-06T04:13:47.207Z,5.90
2019-05-06T04:16:23.300Z,5.90
2019-05-06T04:19:03.894Z,5.90
2019-05-06T04:21:43.400Z,5.90
2019-05-06T04:24:22.901Z,6.00
2019-05-06T04:27:05.580Z,6.00
2019-05-06T04:29:35.999Z,6.00
2019-05-06T04:32:05.805Z,6.00
2019-05-06T04:34:36.322Z,6.00
2019-05-06T04:37:06.275Z,6.10
2019-05-06T04:39:36.077Z,6.10
2019-05-06T04:42:09.215Z,6.20
2019-05-06T04:44:38.567Z,6.20
2019-05-06T04:47:08.410Z,6.30
2019-05-06T04:49:48.239Z,6.30
2019-05-06T04:52:18.541Z,6.50
2019-05-06T04:54:48.356Z,6.60
2019-05-06T04:57:18.524Z,7.00
2019-05-06T04:59:49.103Z,7.80
2019-05-06T05:02:19.167Z,8.50
2019-05-06T05:04:52.645Z,9.10
2019-05-06T05:07:22.461Z,9.60
2019-05-06T05:09:59.848Z,10.00
2019-05-06T05:12:37.639Z,10.10
2019-05-06T05:15:29.820Z,10.30
2019-05-06T05:18:16.152Z,10.50
2019-05-06T05:20:46.923Z,10.50
2019-05-06T05:23:16.890Z,10.70
2019-05-06T05:25:52.068Z,11.10
2019-05-06T05:28:22.318Z,11.10
2019-05-06T05:30:53.518Z,11.10
2019-05-06T05:33:24.996Z,11.10
2019-05-06T05:35:54.948Z,10.90
2019-05-06T05:38:24.844Z,10.80
2019-05-06T05:40:55.146Z,10.90
2019-05-06T05:43:33.786Z,10.90
2019-05-06T05:46:03.800Z,10.80
2019-05-06T05:49:04.927Z,10.80
2019-05-06T05:51:34.784Z,11.00
2019-05-06T05:54:04.764Z,11.20
2019-05-06T05:56:37.152Z,11.30
2019-05-06T05:59:07.197Z,11.50
2019-05-06T06:01:37.562Z,11.70
2019-05-06T06:04:07.559Z,11.70
2019-05-06T06:06:37.610Z,11.70
2019-05-06T06:09:08.134Z,11.60
2019-05-06T06:12:03.445Z,11.70
2019-05-06T06:14:55.768Z,11.70
2019-05-06T06:17:48.210Z,11.70
2019-05-06T06:20:36.145Z,11.70
2019-05-06T06:23:18.523Z,11.80
2019-05-06T06:25:48.351Z,11.80
2019-05-06T06:28:18.729Z,12.00
2019-05-06T06:30:55.033Z,11.90
2019-05-06T06:33:24.813Z,11.80
2019-05-06T06:36:02.732Z,11.70
2019-05-06T06:39:03.665Z,11.60
2019-05-06T06:41:33.699Z,11.60
2019-05-06T06:44:06.733Z,11.70
2019-05-06T06:46:36.617Z,11.90
2019-05-06T06:49:06.459Z,11.90
2019-05-06T06:51:36.347Z,11.90
2019-05-06T06:54:06.258Z,12.10
2019-05-06T06:57:03.234Z,12.20
2019-05-06T06:59:34.711Z,12.20
2019-05-06T07:02:19.752Z,11.80
2019-05-06T07:05:21.097Z,11.70
2019-05-06T07:07:43.669Z,11.40
2019-05-06T07:10:32.430Z,11.20
2019-05-06T07:13:03.055Z,11.50
2019-05-06T07:15:33.817Z,12.10
2019-05-06T07:18:04.258Z,12.20
2019-05-06T07:20:39.399Z,12.20
2019-05-06T07:23:25.110Z,11.90
2019-05-06T07:25:55.429Z,11.70
2019-05-06T07:28:25.490Z,11.60
2019-05-06T07:30:56.037Z,11.40
2019-05-06T07:33:26.797Z,11.30
2019-05-06T07:35:56.731Z,11.40
2019-05-06T07:38:26.461Z,11.50
2019-05-06T07:41:14.468Z,11.70
2019-05-06T07:44:06.054Z,11.60
2019-05-06T07:47:04.093Z,11.60
2019-05-06T07:49:34.150Z,11.80
2019-05-06T07:52:03.867Z,12.10
2019-05-06T07:54:33.740Z,12.20
2019-05-06T07:57:03.696Z,12.10
2019-05-06T07:59:33.547Z,12.20
2019-05-06T08:02:03.482Z,12.10
2019-05-06T08:04:33.174Z,12.00
2019-05-06T08:07:03.322Z,11.90
2019-05-06T08:09:33.064Z,11.90
2019-05-06T08:12:02.908Z,12.00
2019-05-06T08:14:43.159Z,12.00
2019-05-06T08:17:22.307Z,12.00
2019-05-06T08:19:52.904Z,12.00
2019-05-06T08:22:44.199Z,11.80
2019-05-06T08:25:14.166Z,11.90
2019-05-06T08:27:44.020Z,11.80
2019-05-06T08:30:14.240Z,11.90
2019-05-06T08:32:44.203Z,12.20
2019-05-06T08:35:16.026Z,12.50
2019-05-06T08:37:45.979Z,12.50
2019-05-06T08:40:16.685Z,12.20
2019-05-06T08:42:46.446Z,12.00
2019-05-06T08:45:16.618Z,11.80
2019-05-06T08:47:46.328Z,11.80
2019-05-06T08:50:29.070Z,11.90
2019-05-06T08:53:08.112Z,12.00
2019-05-06T08:55:39.218Z,12.30
2019-05-06T08:58:09.040Z,12.60
2019-05-06T09:00:45.202Z,13.10
2019-05-06T09:03:14.959Z,13.60
2019-05-06T09:05:53.271Z,13.70
2019-05-06T09:08:25.213Z,13.30
2019-05-06T09:10:55.389Z,13.00
2019-05-06T09:13:25.200Z,12.70
2019-05-06T09:15:55.102Z,12.80
2019-05-06T09:18:25.188Z,13.10
2019-05-06T09:20:55.004Z,13.30
2019-05-06T09:23:27.524Z,13.30
2019-05-06T09:25:56.368Z,13.30
2019-05-06T09:28:54.436Z,13.20
2019-05-06T09:31:43.321Z,13.00
2019-05-06T09:34:23.270Z,12.60
2019-05-06T09:37:13.313Z,12.60
2019-05-06T09:39:44.829Z,12.60
2019-05-06T09:42:15.218Z,13.00
2019-05-06T09:44:50.052Z,13.30
2019-05-06T09:47:24.040Z,13.50
2019-05-06T09:49:53.903Z,13.50
2019-05-06T09:52:23.629Z,13.30
2019-05-06T09:55:03.461Z,13.10
2019-05-06T09:57:53.645Z,13.00
2019-05-06T10:00:23.726Z,13.00
2019-05-06T10:02:53.745Z,13.00
2019-05-06T10:05:23.446Z,12.90
2019-05-06T10:07:53.491Z,13.00
2019-05-06T10:10:23.417Z,13.10
2019-05-06T10:12:53.576Z,13.00
2019-05-06T10:15:24.177Z,12.80
2019-05-06T10:18:12.768Z,12.80
2019-05-06T10:20:45.057Z,13.00
2019-05-06T10:23:15.329Z,13.20
2019-05-06T10:25:45.289Z,13.30
2019-05-06T10:28:52.283Z,13.50
2019-05-06T10:31:22.607Z,13.60
2019-05-06T10:34:13.862Z,13.50
2019-05-06T10:37:04.483Z,13.20
2019-05-06T10:39:30.400Z,13.30
2019-05-06T10:42:23.058Z,13.60
2019-05-06T10:45:19.274Z,13.90
2019-05-06T10:47:48.987Z,14.20
2019-05-06T10:50:18.750Z,14.60
2019-05-06T10:53:06.596Z,14.80
2019-05-06T10:55:37.846Z,15.00
2019-05-06T10:58:07.615Z,15.30
2019-05-06T11:00:37.406Z,15.50
2019-05-06T11:03:14.825Z,15.40
2019-05-06T11:05:45.304Z,15.30
2019-05-06T11:08:15.471Z,15.40
2019-05-06T11:10:46.296Z,15.10
2019-05-06T11:13:16.388Z,14.50
2019-05-06T11:15:46.085Z,13.90
2019-05-06T11:18:15.908Z,13.70
2019-05-06T11:20:45.672Z,13.70
2019-05-06T11:23:15.435Z,13.90
2019-05-06T11:25:45.263Z,14.20
2019-05-06T11:28:35.206Z,14.30
2019-05-06T11:31:30.036Z,14.20
2019-05-06T11:34:19.073Z,14.20
2019-05-06T11:36:52.417Z,14.20
2019-05-06T11:39:23.402Z,14.10
2019-05-06T11:42:06.402Z,14.00
2019-05-06T11:44:24.733Z,13.70
2019-05-06T11:46:54.544Z,13.60
2019-05-06T11:49:24.217Z,13.70
2019-05-06T11:51:54.067Z,13.80
2019-05-06T11:54:24.635Z,13.80
2019-05-06T11:56:58.413Z,14.20
2019-05-06T11:59:27.188Z,14.60
2019-05-06T12:02:02.644Z,14.80
2019-05-06T12:04:32.884Z,15.00
2019-05-06T12:07:11.065Z,15.20
2019-05-06T12:09:34.202Z,15.20
2019-05-06T12:12:04.106Z,15.40
2019-05-06T12:14:34.018Z,15.50
2019-05-06T12:17:03.887Z,15.40
2019-05-06T12:19:33.640Z,15.20
2019-05-06T12:22:03.565Z,15.10
2019-05-06T12:24:34.478Z,15.00
2019-05-06T12:27:04.623Z,14.70
2019-05-06T12:29:34.552Z,14.40
2019-05-06T12:32:29.194Z,14.20
2019-05-06T12:34:58.932Z,14.20
2019-05-06T12:37:28.969Z,14.30
2019-05-06T12:39:59.736Z,14.50
2019-05-06T12:42:36.517Z,14.50
2019-05-06T12:45:27.559Z,14.70
2019-05-06T12:48:03.274Z,14.80
2019-05-06T12:50:33.353Z,14.90
2019-05-06T12:53:03.771Z,14.90
2019-05-06T12:55:33.764Z,14.80
2019-05-06T12:58:03.651Z,14.70
2019-05-06T13:00:34.397Z,14.60
2019-05-06T13:03:04.584Z,14.60
2019-05-06T13:05:34.308Z,14.60
2019-05-06T13:08:06.039Z,14.60
2019-05-06T13:10:35.611Z,14.70
2019-05-06T13:13:05.608Z,14.80
2019-05-06T13:15:35.412Z,14.80
2019-05-06T13:18:07.112Z,14.80
2019-05-06T13:20:37.688Z,14.70
2019-05-06T13:23:20.836Z,14.70
2019-05-06T13:25:46.551Z,14.50
2019-05-06T13:28:18.211Z,14.30
2019-05-06T13:30:47.930Z,14.20
2019-05-06T13:33:39.759Z,14.30
2019-05-06T13:36:13.159Z,14.40
2019-05-06T13:38:43.127Z,14.30
2019-05-06T13:41:13.039Z,14.30
2019-05-06T13:43:47.369Z,14.50
2019-05-06T13:46:26.581Z,14.60
2019-05-06T13:49:15.775Z,14.90
2019-05-06T13:51:52.323Z,14.90
2019-05-06T13:54:22.487Z,14.90
2019-05-06T13:56:52.575Z,14.80
2019-05-06T13:59:22.427Z,14.90
2019-05-06T14:01:58.908Z,15.00
2019-05-06T14:04:28.678Z,15.10
2019-05-06T14:06:58.468Z,15.10
2019-05-06T14:09:32.661Z,15.20
2019-05-06T14:12:02.419Z,15.20
2019-05-06T14:14:32.209Z,15.30
2019-05-06T14:17:02.198Z,15.30
2019-05-06T14:19:33.217Z,15.40
2019-05-06T14:22:03.294Z,15.40
2019-05-06T14:24:34.296Z,15.20
2019-05-06T14:27:08.062Z,15.00
2019-05-06T14:29:45.551Z,14.90
2019-05-06T14:32:18.201Z,14.70
2019-05-06T14:34:47.946Z,14.60
2019-05-06T14:37:17.693Z,14.50
2019-05-06T14:39:58.068Z,14.60
2019-05-06T14:42:22.234Z,14.50
2019-05-06T14:44:52.192Z,14.50
2019-05-06T14:47:34.044Z,14.50
2019-05-06T14:50:04.126Z,14.50
2019-05-06T14:52:33.883Z,14.60
2019-05-06T14:55:12.580Z,14.50
2019-05-06T14:57:42.940Z,14.40
2019-05-06T15:00:16.051Z,14.30
2019-05-06T15:02:45.799Z,14.20
2019-05-06T15:05:16.163Z,14.10
2019-05-06T15:07:45.891Z,14.00
2019-05-06T15:10:22.987Z,14.00
2019-05-06T15:12:50.233Z,13.80
2019-05-06T15:15:20.152Z,13.70
2019-05-06T15:17:49.871Z,13.60
2019-05-06T15:20:19.740Z,13.50
2019-05-06T15:22:49.530Z,13.40
2019-05-06T15:25:19.260Z,13.30
2019-05-06T15:27:49.034Z,13.20
2019-05-06T15:30:26.650Z,13.20
2019-05-06T15:32:56.441Z,13.10
2019-05-06T15:35:45.390Z,13.10
2019-05-06T15:38:21.933Z,13.00
2019-05-06T15:40:52.405Z,13.00
2019-05-06T15:43:22.564Z,13.00
2019-05-06T15:45:52.753Z,13.00
2019-05-06T15:48:22.530Z,13.00
2019-05-06T15:50:53.264Z,13.00
2019-05-06T15:53:24.254Z,13.00
2019-05-06T15:55:53.991Z,12.90
2019-05-06T15:58:23.731Z,12.80
2019-05-06T16:00:53.450Z,12.70
2019-05-06T16:03:23.369Z,12.50
2019-05-06T16:05:55.239Z,12.40
2019-05-06T16:08:25.743Z,12.40
2019-05-06T16:10:58.630Z,12.30
2019-05-06T16:13:26.968Z,12.30
2019-05-06T16:15:56.836Z,12.20
2019-05-06T16:18:26.681Z,12.20
2019-05-06T16:20:57.545Z,12.10
2019-05-06T16:23:37.262Z,12.10
2019-05-06T16:26:07.170Z,12.20
2019-05-06T16:28:37.446Z,12.20
2019-05-06T16:31:07.140Z,12.10
2019-05-06T16:33:36.828Z,12.00
2019-05-06T16:36:06.739Z,11.90
2019-05-06T16:38:36.615Z,11.90
2019-05-06T16:41:12.388Z,11.90
2019-05-06T16:43:37.738Z,11.90
2019-05-06T16:46:07.446Z,11.90
2019-05-06T16:48:37.390Z,11.90
2019-05-06T16:51:07.488Z,11.80
2019-05-06T16:53:37.280Z,11.80
2019-05-06T16:56:33.292Z,11.80
2019-05-06T16:59:03.800Z,11.70
2019-05-06T17:01:35.583Z,11.70
2019-05-06T17:04:23.666Z,11.60
2019-05-06T17:06:56.706Z,11.50
2019-05-06T17:09:27.704Z,11.40
2019-05-06T17:11:58.382Z,11.40
2019-05-06T17:14:29.164Z,11.30
2019-05-06T17:16:58.934Z,11.30
2019-05-06T17:19:28.609Z,11.30
2019-05-06T17:21:58.343Z,11.30
2019-05-06T17:24:28.060Z,11.30
2019-05-06T17:26:57.996Z,11.30
2019-05-06T17:29:52.972Z,11.40
2019-05-06T17:32:42.014Z,11.30
2019-05-06T17:35:12.741Z,11.30
2019-05-06T17:37:53.379Z,11.40
2019-05-06T17:40:23.526Z,11.50
2019-05-06T17:42:54.257Z,11.50
2019-05-06T17:45:58.298Z,11.50
2019-05-06T17:48:36.343Z,11.50
2019-05-06T17:51:13.042Z,11.40
2019-05-06T17:53:44.833Z,11.40
2019-05-06T17:56:14.514Z,11.30
2019-05-06T17:58:44.474Z,11.20
2019-05-06T18:01:15.819Z,11.10
2019-05-06T18:03:45.735Z,11.10
2019-05-06T18:06:15.761Z,11.10
2019-05-06T18:08:47.419Z,11.00
2019-05-06T18:11:17.193Z,11.00
2019-05-06T18:13:47.204Z,10.80
2019-05-06T18:16:17.218Z,10.70
2019-05-06T18:18:47.283Z,10.60
2019-05-06T18:21:23.133Z,10.60
2019-05-06T18:23:53.829Z,10.50
2019-05-06T18:26:23.523Z,10.50
2019-05-06T18:28:53.249Z,10.40
2019-05-06T18:31:25.798Z,10.30
2019-05-06T18:33:55.638Z,10.30
2019-05-06T18:36:28.115Z,10.20
2019-05-06T18:38:57.787Z,10.20
2019-05-06T18:41:29.303Z,10.20
2019-05-06T18:43:58.920Z,10.20
2019-05-06T18:46:28.804Z,10.20
2019-05-06T18:48:58.681Z,10.10
2019-05-06T18:51:28.469Z,10.00
2019-05-06T18:53:58.266Z,9.90
2019-05-06T18:56:28.121Z,9.90
2019-05-06T18:58:57.782Z,9.80
2019-05-06T19:01:27.730Z,9.80
2019-05-06T19:04:19.548Z,9.80
2019-05-06T19:06:49.428Z,9.80
2019-05-06T19:09:36.519Z,9.80
2019-05-06T19:12:06.294Z,9.80
2019-05-06T19:14:36.134Z,9.80
2019-05-06T19:17:05.952Z,9.80
2019-05-06T19:19:35.858Z,9.70
2019-05-06T19:22:06.009Z,9.70
2019-05-06T19:24:35.741Z,9.70
2019-05-06T19:27:05.504Z,9.60
2019-05-06T19:29:35.211Z,9.60
2019-05-06T19:32:05.217Z,9.60
2019-05-06T19:34:35.350Z,9.50
2019-05-06T19:37:05.402Z,9.50
2019-05-06T19:39:35.402Z,9.50
2019-05-06T19:42:05.291Z,9.40
2019-05-06T19:44:35.371Z,9.40
2019-05-06T19:47:05.563Z,9.40
2019-05-06T19:49:35.264Z,9.40
2019-05-06T19:52:06.061Z,9.40
2019-05-06T19:54:35.797Z,9.40
2019-05-06T19:57:05.603Z,9.30
2019-05-06T19:59:35.432Z,9.20
2019-05-06T20:02:05.288Z,9.20
2019-05-06T20:04:37.351Z,9.10
2019-05-06T20:07:17.667Z,9.10
2019-05-06T20:10:08.455Z,9.10
2019-05-06T20:12:43.517Z,9.10
2019-05-06T20:15:34.012Z,9.10
2019-05-06T20:18:04.648Z,9.10
2019-05-06T20:20:35.159Z,9.10
2019-05-06T20:23:05.464Z,9.10
2019-05-06T20:25:37.096Z,9.00
2019-05-06T20:28:07.061Z,9.10
2019-05-06T20:30:36.858Z,9.10
2019-05-06T20:33:06.989Z,9.00
2019-05-06T20:35:36.744Z,9.00
2019-05-06T20:38:06.710Z,9.00
2019-05-06T20:40:38.467Z,9.00
2019-05-06T20:43:17.550Z,9.00
2019-05-06T20:45:39.711Z,9.00
2019-05-06T20:48:09.459Z,9.00
2019-05-06T20:50:39.247Z,9.00
2019-05-06T20:53:08.963Z,9.00
2019-05-06T20:55:38.660Z,8.90
2019-05-06T20:58:08.438Z,9.00
2019-05-06T21:00:38.357Z,9.00
2019-05-06T21:03:08.093Z,9.00
2019-05-06T21:05:43.200Z,9.00
2019-05-06T21:08:13.057Z,8.90
2019-05-06T21:10:44.680Z,8.90
2019-05-06T21:13:21.873Z,8.90
2019-05-06T21:15:45.771Z,8.90
2019-05-06T21:18:15.548Z,8.80
2019-05-06T21:20:45.740Z,8.80
2019-05-06T21:23:15.522Z,8.70
2019-05-06T21:25:45.221Z,8.60
2019-05-06T21:28:15.009Z,8.60
2019-05-06T21:30:44.914Z,8.50
2019-05-06T21:33:14.613Z,8.50
2019-05-06T21:35:44.375Z,8.50
2019-05-06T21:38:14.068Z,8.50
2019-05-06T21:40:44.561Z,8.60
2019-05-06T21:43:15.365Z,8.60
2019-05-06T21:45:46.341Z,8.60
2019-05-06T21:48:16.072Z,8.50
2019-05-06T21:50:45.770Z,8.60
2019-05-06T21:53:15.480Z,8.60
2019-05-06T21:55:45.219Z,8.50
2019-05-06T21:58:14.937Z,8.50
2019-05-06T22:00:55.836Z,8.50
2019-05-06T22:03:25.621Z,8.50
2019-05-06T22:05:55.290Z,8.50
2019-05-06T22:08:24.971Z,8.60
2019-05-06T22:10:54.674Z,8.60
2019-05-06T22:13:24.370Z,8.60
2019-05-06T22:15:54.229Z,8.60
2019-05-06T22:18:24.077Z,8.60
2019-05-06T22:21:11.639Z,8.60
2019-05-06T22:24:06.313Z,8.60
2019-05-06T22:26:36.134Z,8.60
2019-05-06T22:29:06.540Z,8.70
2019-05-06T22:31:46.079Z,8.60
2019-05-06T22:34:19.246Z,8.60
2019-05-06T22:36:54.172Z,8.60
2019-05-06T22:39:26.415Z,8.60
2019-05-06T22:41:56.937Z,8.70
2019-05-06T22:44:26.732Z,8.70
2019-05-06T22:46:56.469Z,8.70
2019-05-06T22:49:26.169Z,8.70
2019-05-06T22:51:55.821Z,8.70
2019-05-06T22:54:25.581Z,8.60
2019-05-06T22:56:55.249Z,8.70
2019-05-06T22:59:25.039Z,8.70
2019-05-06T23:02:22.602Z,8.70
2019-05-06T23:04:55.709Z,8.70
2019-05-06T23:07:25.969Z,8.70
2019-05-06T23:09:55.707Z,8.70
2019-05-06T23:12:28.573Z,8.70
2019-05-06T23:14:58.356Z,8.70
2019-05-06T23:17:28.110Z,8.70
2019-05-06T23:19:58.025Z,8.70
2019-05-06T23:22:29.056Z,8.70
2019-05-06T23:24:58.925Z,8.70
2019-05-06T23:27:28.718Z,8.70
2019-05-06T23:29:58.578Z,8.80
2019-05-06T23:32:28.295Z,8.80
2019-05-06T23:34:58.137Z,8.70
2019-05-06T23:37:26.864Z,8.70
2019-05-06T23:40:39.805Z,8.70
2019-05-06T23:43:45.899Z,8.70
2019-05-06T23:46:52.748Z,8.80
2019-05-06T23:49:59.259Z,8.80
2019-05-06T23:53:05.263Z,8.70
2019-05-06T23:56:13.109Z,8.70
2019-05-06T23:58:42.919Z,8.70
